Time;durP1;ratioP1;P1;durP2;ratioP2;P2;SDS_P1;SDS_P2;PMS_P1;PMS_P2;Temp;Humidity;BMP_temperature;BMP_pressure;BME280_temperature;BME280_humidity;BME280_pressure;Samples;Min_cycle;Max_cycle;Signal;HPM_P1;HPM_P2
2022/05/18 00:02:04;;;;;;;5.53;3.22;;;;;;;;;;5023803;28;20126;-84
2022/05/18 00:04:30;;;;;;;5.30;3.40;;;;;;;;;;5025530;28;20021;-84
2022/05/18 00:06:55;;;;;;;6.18;3.35;;;;;;;;;;5025195;28;20034;-84
2022/05/18 00:09:21;;;;;;;4.50;3.22;;;;;;;;;;5027015;28;20036;-83
2022/05/18 00:11:46;;;;;;;8.63;3.60;;;;;;;;;;5027888;28;20112;-83
2022/05/18 00:14:12;;;;;;;5.97;3.55;;;;;;;;;;5020937;28;20085;-82
2022/05/18 00:16:38;;;;;;;5.65;3.67;;;;;;;;;;5028877;28;20022;-79
2022/05/18 00:19:03;;;;;;;6.07;3.35;;;;;;;;;;5024607;28;20033;-83
2022/05/18 00:21:30;;;;;;;6.10;3.50;;;;;;;;;;5020737;28;20033;-83
2022/05/18 00:23:58;;;;;;;8.23;3.72;;;;;;;;;;5019184;28;20393;-79
2022/05/18 00:26:24;;;;;;;5.68;3.67;;;;;;;;;;5027478;28;20029;-84
2022/05/18 00:28:49;;;;;;;7.85;3.70;;;;;;;;;;5025971;28;20099;-83
2022/05/18 00:31:17;;;;;;;6.75;3.72;;;;;;;;;;5041936;28;20049;-79
2022/05/18 00:33:42;;;;;;;6.88;3.65;;;;;;;;;;5023104;28;20033;-83
2022/05/18 00:36:08;;;;;;;6.53;3.92;;;;;;;;;;5025342;28;20504;-83
2022/05/18 00:38:33;;;;;;;5.60;3.80;;;;;;;;;;5030172;28;20030;-81
2022/05/18 00:40:58;;;;;;;9.10;4.40;;;;;;;;;;5023354;28;20029;-80
2022/05/18 00:43:30;;;;;;;7.28;4.47;;;;;;;;;;5023622;28;20025;-80
2022/05/18 00:45:59;;;;;;;7.35;4.40;;;;;;;;;;5021998;28;20401;-81
2022/05/18 00:48:24;;;;;;;6.50;3.78;;;;;;;;;;5022075;28;20474;-83
2022/05/18 00:50:51;;;;;;;6.25;3.92;;;;;;;;;;5022438;28;20021;-79
2022/05/18 00:53:21;;;;;;;7.60;4.20;;;;;;;;;;5021556;28;20055;-82
2022/05/18 00:55:51;;;;;;;6.40;4.15;;;;;;;;;;5040341;28;20033;-84
2022/05/18 00:58:22;;;;;;;7.50;4.03;;;;;;;;;;5027122;28;20143;-82
2022/05/18 01:00:50;;;;;;;7.72;4.30;;;;;;;;;;5036467;28;20052;-81
2022/05/18 01:03:46;;;;;;;6.43;4.43;;;;;;;;;;5020312;28;20064;-84
2022/05/18 01:06:31;;;;;;;7.53;4.30;;;;;;;;;;5015974;28;20145;-79
2022/05/18 01:09:04;;;;;;;8.05;5.03;;;;;;;;;;5015912;28;20394;-84
2022/05/18 01:11:31;;;;;;;6.97;4.00;;;;;;;;;;5022531;28;20071;-79
2022/05/18 01:13:57;;;;;;;8.40;4.18;;;;;;;;;;5022914;28;20037;-83
2022/05/18 01:16:25;;;;;;;6.75;4.40;;;;;;;;;;5029531;28;20033;-83
2022/05/18 01:18:50;;;;;;;6.95;4.30;;;;;;;;;;5026289;28;20505;-80
2022/05/18 01:21:16;;;;;;;6.03;3.80;;;;;;;;;;5038620;28;20026;-83
2022/05/18 01:23:59;;;;;;;6.40;4.47;;;;;;;;;;5027364;28;20037;-83
2022/05/18 01:26:44;;;;;;;7.20;4.07;;;;;;;;;;5021433;28;20029;-81
2022/05/18 01:29:10;;;;;;;7.20;4.40;;;;;;;;;;5019372;28;20092;-81
2022/05/18 01:31:44;;;;;;;6.43;3.78;;;;;;;;;;5020535;28;20041;-79
2022/05/18 01:34:10;;;;;;;6.47;3.88;;;;;;;;;;5021628;28;20022;-82
2022/05/18 01:36:36;;;;;;;5.78;3.90;;;;;;;;;;5025927;28;20021;-84
2022/05/18 01:39:02;;;;;;;6.70;4.32;;;;;;;;;;5028281;28;20025;-84
2022/05/18 01:41:30;;;;;;;5.50;3.70;;;;;;;;;;5025183;28;20033;-84
2022/05/18 01:44:01;;;;;;;6.88;4.00;;;;;;;;;;5024300;28;20116;-79
2022/05/18 01:46:31;;;;;;;5.25;3.90;;;;;;;;;;5023755;28;20429;-80
2022/05/18 01:48:56;;;;;;;8.50;4.28;;;;;;;;;;5022718;28;20367;-79
2022/05/18 01:51:32;;;;;;;6.00;3.83;;;;;;;;;;5025379;28;20031;-79
2022/05/18 01:53:58;;;;;;;7.43;4.15;;;;;;;;;;5024594;28;20037;-80
2022/05/18 01:56:23;;;;;;;5.68;3.90;;;;;;;;;;5018968;28;20029;-84
2022/05/18 01:58:49;;;;;;;7.53;4.13;;;;;;;;;;5026705;28;20029;-84
2022/05/18 02:01:14;;;;;;;6.40;3.63;;;;;;;;;;5023052;28;20385;-80
2022/05/18 02:03:39;;;;;;;5.68;4.10;;;;;;;;;;5026352;28;20083;-84
2022/05/18 02:06:05;;;;;;;6.80;4.00;;;;;;;;;;5024540;28;20022;-80
2022/05/18 02:08:30;;;;;;;5.53;3.60;;;;;;;;;;5027060;28;20091;-83
2022/05/18 02:10:55;;;;;;;6.00;4.35;;;;;;;;;;5025163;28;20029;-83
2022/05/18 02:13:21;;;;;;;7.22;4.40;;;;;;;;;;5024532;28;20083;-84
2022/05/18 02:15:46;;;;;;;5.60;4.22;;;;;;;;;;5022803;28;20511;-84
2022/05/18 02:18:12;;;;;;;8.20;4.18;;;;;;;;;;5026049;28;20485;-80
2022/05/18 02:20:38;;;;;;;7.78;4.95;;;;;;;;;;5031044;28;20473;-84
2022/05/18 02:23:04;;;;;;;6.57;4.35;;;;;;;;;;5029592;28;20922;-80
2022/05/18 02:25:32;;;;;;;6.82;4.30;;;;;;;;;;5030429;28;20017;-83
2022/05/18 02:27:57;;;;;;;6.75;4.20;;;;;;;;;;5031713;28;20021;-80
2022/05/18 02:30:22;;;;;;;6.88;4.65;;;;;;;;;;5027037;28;20068;-80
2022/05/18 02:32:48;;;;;;;6.10;4.68;;;;;;;;;;5025913;28;20425;-84
2022/05/18 02:35:13;;;;;;;7.97;5.55;;;;;;;;;;5018080;28;20429;-85
2022/05/18 02:37:39;;;;;;;9.40;5.30;;;;;;;;;;5044545;28;20021;-84
2022/05/18 02:40:06;;;;;;;7.07;4.93;;;;;;;;;;5031318;28;20022;-79
2022/05/18 02:42:32;;;;;;;8.13;5.30;;;;;;;;;;5028810;28;20029;-81
2022/05/18 02:44:57;;;;;;;7.85;5.50;;;;;;;;;;5025348;28;20136;-84
2022/05/18 02:47:23;;;;;;;8.63;5.13;;;;;;;;;;5029974;28;20026;-79
2022/05/18 02:49:48;;;;;;;6.97;5.15;;;;;;;;;;5030821;28;20021;-80
2022/05/18 02:52:13;;;;;;;8.35;5.50;;;;;;;;;;5026732;28;20033;-79
2022/05/18 02:57:23;;;;;;;8.63;4.90;;;;;;;;;;5032169;28;20088;-79
2022/05/18 02:59:49;;;;;;;7.43;5.10;;;;;;;;;;5032041;28;20563;-80
2022/05/18 03:02:15;;;;;;;10.88;5.68;;;;;;;;;;5030996;28;20103;-80
2022/05/18 03:04:40;;;;;;;7.70;5.18;;;;;;;;;;5028360;28;20053;-82
2022/05/18 03:07:05;;;;;;;8.63;5.38;;;;;;;;;;5030960;28;20022;-84
2022/05/18 03:09:31;;;;;;;8.02;5.22;;;;;;;;;;5029067;28;20038;-85
2022/05/18 03:11:56;;;;;;;8.00;5.50;;;;;;;;;;5022166;28;20477;-80
2022/05/18 03:14:23;;;;;;;9.68;5.30;;;;;;;;;;5027079;28;20509;-84
2022/05/18 03:16:49;;;;;;;8.68;5.10;;;;;;;;;;5027359;28;20037;-80
2022/05/18 03:19:14;;;;;;;8.38;5.32;;;;;;;;;;5027623;28;20029;-79
2022/05/18 03:24:25;;;;;;;7.95;5.47;;;;;;;;;;5026627;28;20064;-84
2022/05/18 03:26:50;;;;;;;9.68;5.82;;;;;;;;;;5024022;28;20048;-85
2022/05/18 03:29:17;;;;;;;7.05;4.78;;;;;;;;;;5025459;28;20025;-80
2022/05/18 03:31:43;;;;;;;7.82;5.22;;;;;;;;;;5026112;28;20522;-79
2022/05/18 03:34:08;;;;;;;7.22;5.07;;;;;;;;;;5027528;28;20017;-80
2022/05/18 03:36:34;;;;;;;7.47;5.18;;;;;;;;;;5039982;28;20488;-84
2022/05/18 03:39:01;;;;;;;7.03;5.32;;;;;;;;;;5026721;28;20025;-78
2022/05/18 03:41:26;;;;;;;6.60;5.13;;;;;;;;;;5028271;28;20021;-79
2022/05/18 03:43:52;;;;;;;9.05;5.43;;;;;;;;;;5020337;28;21770;-83
2022/05/18 03:46:17;;;;;;;8.50;5.53;;;;;;;;;;5025396;28;20049;-84
2022/05/18 03:48:43;;;;;;;7.82;5.32;;;;;;;;;;5028319;28;20030;-84
2022/05/18 03:51:11;;;;;;;8.75;5.65;;;;;;;;;;5043348;28;20405;-81
2022/05/18 03:53:36;;;;;;;6.70;4.80;;;;;;;;;;5019448;28;20537;-83
2022/05/18 03:56:02;;;;;;;9.25;5.43;;;;;;;;;;5015848;28;20108;-84
2022/05/18 03:58:27;;;;;;;7.28;4.88;;;;;;;;;;5037654;28;20029;-79
2022/05/18 04:00:55;;;;;;;7.78;5.15;;;;;;;;;;5024694;28;20025;-80
2022/05/18 04:03:23;;;;;;;9.27;5.47;;;;;;;;;;5023224;28;20474;-84
2022/05/18 04:05:50;;;;;;;11.55;5.82;;;;;;;;;;5021458;28;20033;-83
2022/05/18 04:08:16;;;;;;;7.47;5.55;;;;;;;;;;5021257;28;20543;-80
2022/05/18 04:10:41;;;;;;;7.10;5.03;;;;;;;;;;5024169;28;20037;-83
2022/05/18 04:13:11;;;;;;;7.78;6.20;;;;;;;;;;5025346;28;20065;-79
2022/05/18 04:15:36;;;;;;;10.13;6.35;;;;;;;;;;5022713;28;20064;-83
2022/05/18 04:18:02;;;;;;;9.48;6.18;;;;;;;;;;5024294;28;20032;-78
2022/05/18 04:20:28;;;;;;;13.60;6.18;;;;;;;;;;5021653;28;20025;-81
2022/05/18 04:22:54;;;;;;;8.38;6.38;;;;;;;;;;5026306;28;20103;-80
2022/05/18 04:25:21;;;;;;;8.98;5.82;;;;;;;;;;5024994;28;20025;-84
2022/05/18 04:27:47;;;;;;;11.75;6.55;;;;;;;;;;5017115;28;20030;-84
2022/05/18 04:30:14;;;;;;;9.48;6.30;;;;;;;;;;5016513;28;20033;-83
2022/05/18 04:32:40;;;;;;;8.82;5.95;;;;;;;;;;5024352;28;20061;-80
2022/05/18 04:35:08;;;;;;;10.52;6.40;;;;;;;;;;5021342;28;20061;-79
2022/05/18 04:37:34;;;;;;;8.50;6.15;;;;;;;;;;5017519;28;20362;-83
2022/05/18 04:39:59;;;;;;;9.30;6.40;;;;;;;;;;5020454;28;20029;-84
2022/05/18 04:42:25;;;;;;;10.00;6.72;;;;;;;;;;5024086;28;20035;-79
2022/05/18 04:44:50;;;;;;;10.75;6.43;;;;;;;;;;5028106;28;20069;-83
2022/05/18 04:47:16;;;;;;;10.70;6.70;;;;;;;;;;5027071;28;20025;-84
2022/05/18 04:49:42;;;;;;;11.23;6.72;;;;;;;;;;5026033;28;20075;-79
2022/05/18 04:52:07;;;;;;;8.70;6.05;;;;;;;;;;5025026;28;20493;-83
2022/05/18 04:54:34;;;;;;;11.45;7.75;;;;;;;;;;5027015;28;20064;-84
2022/05/18 04:57:00;;;;;;;7.97;6.28;;;;;;;;;;5026880;28;20029;-83
2022/05/18 04:59:25;;;;;;;8.68;6.60;;;;;;;;;;5024032;28;20048;-80
2022/05/18 05:01:51;;;;;;;8.60;6.43;;;;;;;;;;5025271;28;20037;-82
2022/05/18 05:04:16;;;;;;;10.93;6.60;;;;;;;;;;5020957;28;20034;-80
2022/05/18 05:06:43;;;;;;;9.07;6.13;;;;;;;;;;5024735;28;20139;-78
2022/05/18 05:09:09;;;;;;;9.50;6.55;;;;;;;;;;5023374;28;20025;-79
2022/05/18 05:11:35;;;;;;;8.68;6.65;;;;;;;;;;5030440;28;20037;-80
2022/05/18 05:14:00;;;;;;;8.60;6.97;;;;;;;;;;5029291;28;20025;-83
2022/05/18 05:16:28;;;;;;;8.57;6.43;;;;;;;;;;5026726;28;20493;-80
2022/05/18 05:18:53;;;;;;;9.52;6.90;;;;;;;;;;5028071;28;20568;-80
2022/05/18 05:21:18;;;;;;;9.50;7.05;;;;;;;;;;5019732;28;20121;-84
2022/05/18 05:23:44;;;;;;;10.82;7.15;;;;;;;;;;5026615;28;20029;-80
2022/05/18 05:26:09;;;;;;;9.88;7.47;;;;;;;;;;5028748;28;20026;-79
2022/05/18 05:28:34;;;;;;;8.65;6.63;;;;;;;;;;5029494;28;20465;-85
2022/05/18 05:31:04;;;;;;;8.10;6.55;;;;;;;;;;5024403;28;20485;-82
2022/05/18 05:33:30;;;;;;;10.60;7.72;;;;;;;;;;5029658;28;20505;-84
2022/05/18 05:35:57;;;;;;;8.70;7.57;;;;;;;;;;5030298;28;20021;-80
2022/05/18 05:38:22;;;;;;;10.98;7.95;;;;;;;;;;5027038;28;20473;-83
2022/05/18 05:40:47;;;;;;;10.63;7.93;;;;;;;;;;5041768;28;20029;-79
2022/05/18 05:43:13;;;;;;;9.60;6.97;;;;;;;;;;5031451;28;20061;-79
2022/05/18 05:45:39;;;;;;;7.78;6.40;;;;;;;;;;5027684;28;20174;-79
2022/05/18 05:48:05;;;;;;;10.50;6.90;;;;;;;;;;5038015;28;20017;-84
2022/05/18 05:50:33;;;;;;;9.27;6.78;;;;;;;;;;5040480;28;20025;-80
2022/05/18 05:52:59;;;;;;;9.93;6.80;;;;;;;;;;5027152;28;20074;-83
2022/05/18 05:55:26;;;;;;;10.48;7.00;;;;;;;;;;5028002;28;20040;-84
2022/05/18 05:57:55;;;;;;;10.02;7.13;;;;;;;;;;5034875;28;20068;-84
2022/05/18 06:00:22;;;;;;;9.85;6.85;;;;;;;;;;5030192;28;20036;-84
2022/05/18 06:02:48;;;;;;;12.57;7.45;;;;;;;;;;5031638;28;20091;-84
2022/05/18 06:05:14;;;;;;;8.45;6.75;;;;;;;;;;5033546;28;20026;-80
2022/05/18 06:07:39;;;;;;;9.60;6.53;;;;;;;;;;5028157;28;20060;-80
2022/05/18 06:10:05;;;;;;;8.43;5.82;;;;;;;;;;5023703;28;20065;-80
2022/05/18 06:12:30;;;;;;;9.00;6.15;;;;;;;;;;5030096;28;20508;-80
2022/05/18 06:14:57;;;;;;;8.95;6.15;;;;;;;;;;5030418;28;20400;-83
2022/05/18 06:17:22;;;;;;;9.88;6.60;;;;;;;;;;5033126;28;20104;-79
2022/05/18 06:19:48;;;;;;;9.65;5.93;;;;;;;;;;5030165;28;20537;-79
2022/05/18 06:22:13;;;;;;;7.75;6.30;;;;;;;;;;5031264;28;20033;-80
2022/05/18 06:24:40;;;;;;;9.45;6.43;;;;;;;;;;5038580;28;20021;-80
2022/05/18 06:27:06;;;;;;;9.13;6.38;;;;;;;;;;5034086;28;20116;-85
2022/05/18 06:29:31;;;;;;;8.57;6.10;;;;;;;;;;5032333;28;20124;-85
2022/05/18 06:31:57;;;;;;;8.07;6.40;;;;;;;;;;5034746;28;20033;-85
2022/05/18 06:34:22;;;;;;;8.45;6.32;;;;;;;;;;5029279;28;20029;-83
2022/05/18 06:36:50;;;;;;;8.95;6.05;;;;;;;;;;5032495;28;20101;-80
2022/05/18 06:39:18;;;;;;;8.88;6.88;;;;;;;;;;5030738;28;20025;-80
2022/05/18 06:41:44;;;;;;;9.73;6.40;;;;;;;;;;5047467;28;20025;-80
2022/05/18 06:44:10;;;;;;;8.25;6.20;;;;;;;;;;5030690;28;20025;-83
2022/05/18 06:46:37;;;;;;;10.38;6.75;;;;;;;;;;5031290;28;20359;-80
2022/05/18 06:49:08;;;;;;;8.82;6.35;;;;;;;;;;5028692;28;20460;-79
2022/05/18 06:51:37;;;;;;;9.30;6.20;;;;;;;;;;5031654;28;20072;-86
2022/05/18 06:54:03;;;;;;;8.38;6.47;;;;;;;;;;5027393;28;20021;-80
2022/05/18 06:56:32;;;;;;;8.23;6.72;;;;;;;;;;5033007;28;20017;-85
2022/05/18 06:58:58;;;;;;;9.10;6.53;;;;;;;;;;5030568;28;20453;-80
2022/05/18 07:01:25;;;;;;;9.32;6.50;;;;;;;;;;5026179;28;20021;-85
2022/05/18 07:03:51;;;;;;;10.60;6.15;;;;;;;;;;5026852;28;20041;-85
2022/05/18 07:06:19;;;;;;;9.48;6.05;;;;;;;;;;5048888;28;20029;-80
2022/05/18 07:08:45;;;;;;;7.63;5.95;;;;;;;;;;5029462;28;20512;-83
2022/05/18 07:11:10;;;;;;;9.75;6.60;;;;;;;;;;5031042;28;20033;-80
2022/05/18 07:13:36;;;;;;;10.65;5.80;;;;;;;;;;5031858;28;20037;-79
2022/05/18 07:16:02;;;;;;;9.45;5.82;;;;;;;;;;5029281;28;20033;-79
2022/05/18 07:18:29;;;;;;;10.32;6.07;;;;;;;;;;5031605;28;20067;-85
2022/05/18 07:20:59;;;;;;;9.20;6.63;;;;;;;;;;5031914;28;20017;-83
2022/05/18 07:23:25;;;;;;;11.27;7.10;;;;;;;;;;5025305;28;20056;-79
2022/05/18 07:25:56;;;;;;;9.35;6.70;;;;;;;;;;5028609;28;20040;-79
2022/05/18 07:28:23;;;;;;;12.82;7.53;;;;;;;;;;5031984;28;20033;-79
2022/05/18 07:30:53;;;;;;;10.65;7.05;;;;;;;;;;5030551;28;20049;-82
2022/05/18 07:33:20;;;;;;;10.13;6.95;;;;;;;;;;5029489;28;20028;-82
2022/05/18 07:35:46;;;;;;;12.30;8.15;;;;;;;;;;5030604;28;20100;-80
2022/05/18 07:38:13;;;;;;;13.32;8.18;;;;;;;;;;5027221;28;20064;-81
2022/05/18 07:40:38;;;;;;;10.65;7.95;;;;;;;;;;5027810;28;20033;-79
2022/05/18 07:43:04;;;;;;;8.93;7.95;;;;;;;;;;5030566;28;20067;-80
2022/05/18 07:45:29;;;;;;;11.32;8.05;;;;;;;;;;5030230;28;20509;-80
2022/05/18 07:47:55;;;;;;;11.60;8.20;;;;;;;;;;5030709;28;20112;-79
2022/05/18 07:50:22;;;;;;;10.23;8.10;;;;;;;;;;5029667;28;20031;-79
2022/05/18 07:52:48;;;;;;;12.95;8.70;;;;;;;;;;5029675;28;20055;-80
2022/05/18 07:55:14;;;;;;;11.90;8.60;;;;;;;;;;5029415;28;20076;-81
2022/05/18 07:57:40;;;;;;;11.52;8.32;;;;;;;;;;5030229;28;20389;-80
2022/05/18 08:00:08;;;;;;;14.20;8.98;;;;;;;;;;5028967;28;20038;-81
2022/05/18 08:02:34;;;;;;;10.80;8.95;;;;;;;;;;5032973;28;20029;-82
2022/05/18 08:04:59;;;;;;;10.95;8.25;;;;;;;;;;5029166;28;20068;-79
2022/05/18 08:07:25;;;;;;;11.85;8.25;;;;;;;;;;5031043;28;20033;-80
2022/05/18 08:15:18;;;;;;;12.80;8.38;;;;;;;;;;5027795;28;20084;-82
2022/05/18 08:17:44;;;;;;;11.20;8.90;;;;;;;;;;5029633;28;20397;-81
2022/05/18 08:20:14;;;;;;;13.40;8.98;;;;;;;;;;5029758;28;20025;-79
2022/05/18 08:22:43;;;;;;;10.10;8.40;;;;;;;;;;5021426;28;20075;-82
2022/05/18 08:25:09;;;;;;;10.00;8.10;;;;;;;;;;5030336;28;20066;-81
2022/05/18 08:27:38;;;;;;;11.25;9.00;;;;;;;;;;5029092;28;20037;-81
2022/05/18 08:30:06;;;;;;;12.52;9.25;;;;;;;;;;5027640;28;20029;-79
2022/05/18 08:32:32;;;;;;;12.02;9.30;;;;;;;;;;5029673;28;20068;-82
2022/05/18 08:34:57;;;;;;;11.18;8.98;;;;;;;;;;5025788;28;20049;-81
2022/05/18 08:37:22;;;;;;;12.15;9.95;;;;;;;;;;5043797;28;20028;-81
2022/05/18 08:39:49;;;;;;;15.05;10.30;;;;;;;;;;5029966;28;20025;-79
2022/05/18 08:42:15;;;;;;;14.10;10.98;;;;;;;;;;5027488;28;20033;-79
2022/05/18 08:44:40;;;;;;;13.30;10.20;;;;;;;;;;5024226;28;20409;-81
2022/05/18 08:47:27;;;;;;;14.85;9.32;;;;;;;;;;5030614;28;20037;-81
2022/05/18 08:50:02;;;;;;;13.77;10.10;;;;;;;;;;5024795;28;20040;-79
2022/05/18 08:52:34;;;;;;;14.45;10.30;;;;;;;;;;5024413;28;20144;-81
2022/05/18 08:55:09;;;;;;;14.20;10.40;;;;;;;;;;5031562;28;20033;-83
2022/05/18 08:57:39;;;;;;;11.93;10.07;;;;;;;;;;5041934;28;20024;-79
2022/05/18 09:00:26;;;;;;;12.27;8.88;;;;;;;;;;5026672;28;20044;-81
2022/05/18 09:03:03;;;;;;;11.27;8.52;;;;;;;;;;5025043;28;20044;-80
2022/05/18 09:05:38;;;;;;;12.10;7.13;;;;;;;;;;5030707;28;20028;-80
2022/05/18 09:08:10;;;;;;;11.23;7.18;;;;;;;;;;5040349;28;20029;-81
2022/05/18 09:10:44;;;;;;;11.77;6.35;;;;;;;;;;5023659;28;20537;-79
2022/05/18 09:13:10;;;;;;;7.78;5.63;;;;;;;;;;5034966;28;20032;-83
2022/05/18 09:15:57;;;;;;;10.65;7.53;;;;;;;;;;5030127;28;20534;-81
2022/05/18 09:18:45;;;;;;;9.50;6.47;;;;;;;;;;5028919;28;20057;-81
2022/05/18 09:21:20;;;;;;;11.63;8.32;;;;;;;;;;5025825;28;20028;-83
2022/05/18 09:23:51;;;;;;;9.10;6.72;;;;;;;;;;5023781;28;20053;-83
2022/05/18 09:26:39;;;;;;;11.00;6.53;;;;;;;;;;5024798;28;20087;-83
2022/05/18 09:29:24;;;;;;;9.50;6.38;;;;;;;;;;5031542;28;20025;-81
2022/05/18 09:31:56;;;;;;;10.48;7.63;;;;;;;;;;5044746;28;20386;-80
2022/05/18 09:34:21;;;;;;;10.13;6.75;;;;;;;;;;5024921;28;20029;-80
2022/05/18 09:37:13;;;;;;;7.75;5.65;;;;;;;;;;5026412;28;20152;-79
2022/05/18 09:39:43;;;;;;;6.60;5.07;;;;;;;;;;5028341;28;20025;-81
2022/05/18 09:42:14;;;;;;;9.63;4.70;;;;;;;;;;5034716;28;20547;-81
2022/05/18 09:45:01;;;;;;;6.30;4.10;;;;;;;;;;5029132;28;20090;-81
2022/05/18 09:47:29;;;;;;;7.28;4.95;;;;;;;;;;5027117;28;20033;-81
2022/05/18 09:49:59;;;;;;;7.20;4.80;;;;;;;;;;5027742;28;20017;-81
2022/05/18 09:52:27;;;;;;;7.38;5.05;;;;;;;;;;5027330;28;20111;-83
2022/05/18 09:54:55;;;;;;;5.78;4.18;;;;;;;;;;5029482;28;20028;-83
2022/05/18 09:57:40;;;;;;;7.32;3.72;;;;;;;;;;5027535;28;20029;-81
2022/05/18 10:00:18;;;;;;;6.35;3.80;;;;;;;;;;5030418;28;20033;-79
2022/05/18 10:07:27;;;;;;;8.32;4.30;;;;;;;;;;5026795;28;20087;-79
2022/05/18 10:08:37;;;;;;;9.55;5.13;;;;;;;;;;5029592;28;20022;-81
2022/05/18 10:11:07;;;;;;;7.90;4.75;;;;;;;;;;5027879;28;20123;-79
2022/05/18 10:13:35;;;;;;;7.50;4.63;;;;;;;;;;5022058;28;20048;-83
2022/05/18 10:16:19;;;;;;;8.10;5.03;;;;;;;;;;5028672;28;20025;-81
2022/05/18 10:18:49;;;;;;;9.48;4.78;;;;;;;;;;5028771;28;20032;-81
2022/05/18 10:21:26;;;;;;;6.60;4.32;;;;;;;;;;5028995;28;20026;-80
2022/05/18 10:23:55;;;;;;;7.18;4.25;;;;;;;;;;5025234;28;20033;-83
2022/05/18 10:26:21;;;;;;;5.30;4.20;;;;;;;;;;5029239;28;20025;-83
2022/05/18 10:28:55;;;;;;;6.53;4.47;;;;;;;;;;5027634;28;20393;-81
2022/05/18 10:32:06;;;;;;;5.60;4.05;;;;;;;;;;5027068;28;20262;-81
2022/05/18 10:34:41;;;;;;;6.65;4.25;;;;;;;;;;5015007;28;20099;-81
2022/05/18 10:37:09;;;;;;;5.88;3.80;;;;;;;;;;5030941;28;20025;-82
2022/05/18 10:39:46;;;;;;;6.40;3.00;;;;;;;;;;5029546;28;20029;-80
2022/05/18 10:42:47;;;;;;;4.22;2.70;;;;;;;;;;5047030;28;20025;-81
2022/05/18 10:45:35;;;;;;;4.20;2.95;;;;;;;;;;5010359;28;20079;-83
2022/05/18 10:48:17;;;;;;;5.03;2.80;;;;;;;;;;5023717;28;20038;-78
2022/05/18 10:50:45;;;;;;;5.55;2.65;;;;;;;;;;5023289;28;20061;-82
2022/05/18 10:53:13;;;;;;;4.10;2.90;;;;;;;;;;5031702;28;20037;-82
2022/05/18 10:55:55;;;;;;;7.72;3.97;;;;;;;;;;5028387;28;20134;-78
2022/05/18 10:58:33;;;;;;;5.97;3.90;;;;;;;;;;5027700;28;20142;-77
2022/05/18 11:01:07;;;;;;;6.28;3.42;;;;;;;;;;5022700;28;20527;-78
2022/05/18 11:03:50;;;;;;;6.13;4.05;;;;;;;;;;5040561;28;20486;-81
2022/05/18 11:06:20;;;;;;;7.05;3.80;;;;;;;;;;5034841;28;20063;-77
2022/05/18 11:08:47;;;;;;;8.65;4.18;;;;;;;;;;5044902;28;20079;-77
2022/05/18 11:11:23;;;;;;;5.88;4.30;;;;;;;;;;5030630;28;20065;-78
2022/05/18 11:14:21;;;;;;;6.28;3.42;;;;;;;;;;5029913;28;20018;-78
2022/05/18 11:17:00;;;;;;;5.45;3.97;;;;;;;;;;5029927;28;20029;-82
2022/05/18 11:19:52;;;;;;;5.20;3.50;;;;;;;;;;5026335;28;20377;-77
2022/05/18 11:22:33;;;;;;;10.38;4.60;;;;;;;;;;5044444;28;20519;-78
2022/05/18 11:25:28;;;;;;;7.85;4.43;;;;;;;;;;5023531;28;20517;-80
2022/05/18 11:28:05;;;;;;;8.70;4.78;;;;;;;;;;5031802;28;20083;-82
2022/05/18 11:31:02;;;;;;;6.32;3.47;;;;;;;;;;5027590;28;20025;-81
2022/05/18 11:33:38;;;;;;;8.55;5.10;;;;;;;;;;5027033;28;20029;-81
2022/05/18 11:36:25;;;;;;;7.03;4.45;;;;;;;;;;5030728;28;20370;-78
2022/05/18 11:39:03;;;;;;;5.60;3.83;;;;;;;;;;5030136;28;20032;-82
2022/05/18 11:41:42;;;;;;;8.23;3.80;;;;;;;;;;5029118;28;20033;-77
2022/05/18 11:44:25;;;;;;;5.97;4.30;;;;;;;;;;5021498;28;20037;-80
2022/05/18 11:47:12;;;;;;;6.45;4.57;;;;;;;;;;5020346;28;20088;-81
2022/05/18 11:50:09;;;;;;;5.25;3.50;;;;;;;;;;5021663;28;20037;-82
2022/05/18 11:53:04;;;;;;;5.95;3.75;;;;;;;;;;5021532;28;20033;-77
2022/05/18 11:55:50;;;;;;;5.85;2.95;;;;;;;;;;5022190;28;20389;-82
2022/05/18 11:58:53;;;;;;;4.38;2.88;;;;;;;;;;5019476;28;20022;-81
2022/05/18 12:01:54;;;;;;;4.07;2.95;;;;;;;;;;5021632;28;20060;-78
2022/05/18 12:04:51;;;;;;;4.18;2.80;;;;;;;;;;5022783;28;20044;-78
2022/05/18 12:07:34;;;;;;;5.00;3.05;;;;;;;;;;5004941;28;20043;-81
2022/05/18 12:10:25;;;;;;;4.32;2.45;;;;;;;;;;5022168;28;20041;-81
2022/05/18 12:13:09;;;;;;;4.05;2.60;;;;;;;;;;5021953;28;20088;-75
2022/05/18 12:15:40;;;;;;;5.38;3.00;;;;;;;;;;5024678;28;20025;-78
2022/05/18 12:18:12;;;;;;;4.28;3.08;;;;;;;;;;5020828;28;20460;-76
2022/05/18 12:20:47;;;;;;;6.55;3.38;;;;;;;;;;5020663;28;20033;-77
2022/05/18 12:23:16;;;;;;;6.40;4.70;;;;;;;;;;5021613;28;20039;-76
2022/05/18 12:25:43;;;;;;;7.65;4.85;;;;;;;;;;5020106;28;20084;-77
2022/05/18 12:28:11;;;;;;;6.90;5.30;;;;;;;;;;5015438;28;20500;-77
2022/05/18 12:30:39;;;;;;;6.85;5.13;;;;;;;;;;5023850;28;20041;-77
2022/05/18 12:33:07;;;;;;;7.38;5.57;;;;;;;;;;5021910;28;20481;-77
2022/05/18 12:35:47;;;;;;;7.88;5.43;;;;;;;;;;5018902;28;20033;-77
2022/05/18 12:38:27;;;;;;;7.60;5.25;;;;;;;;;;5024178;28;20127;-77
2022/05/18 12:40:55;;;;;;;9.48;5.47;;;;;;;;;;5017650;28;20037;-76
2022/05/18 12:43:26;;;;;;;7.45;5.00;;;;;;;;;;5023126;28;20029;-77
2022/05/18 12:46:20;;;;;;;6.35;4.70;;;;;;;;;;5021643;28;20069;-78
2022/05/18 12:48:59;;;;;;;6.65;4.70;;;;;;;;;;5023054;28;20132;-77
2022/05/18 12:51:27;;;;;;;9.10;6.22;;;;;;;;;;5016943;28;20436;-75
2022/05/18 12:54:02;;;;;;;9.80;6.28;;;;;;;;;;5020380;28;20033;-77
2022/05/18 12:56:36;;;;;;;8.07;5.70;;;;;;;;;;5029188;28;20036;-78
2022/05/18 12:59:50;;;;;;;8.65;6.05;;;;;;;;;;5030026;28;20021;-77
2022/05/18 13:02:35;;;;;;;8.18;6.00;;;;;;;;;;5025021;28;20536;-75
2022/05/18 13:05:08;;;;;;;7.35;5.25;;;;;;;;;;5019576;28;20525;-76
2022/05/18 13:07:36;;;;;;;7.32;5.00;;;;;;;;;;5043189;28;20033;-77
2022/05/18 13:10:15;;;;;;;7.57;4.30;;;;;;;;;;5025071;28;20048;-76
2022/05/18 13:12:45;;;;;;;8.90;5.88;;;;;;;;;;5028146;28;20033;-77
2022/05/18 13:15:20;;;;;;;7.25;4.60;;;;;;;;;;5021031;28;20489;-78
2022/05/18 13:17:45;;;;;;;7.38;5.80;;;;;;;;;;5035185;28;20025;-77
2022/05/18 13:20:25;;;;;;;6.37;4.13;;;;;;;;;;5024447;28;20025;-77
2022/05/18 13:23:25;;;;;;;8.40;5.03;;;;;;;;;;5041316;28;20063;-77
2022/05/18 13:25:55;;;;;;;9.90;5.90;;;;;;;;;;5014030;28;20715;-78
2022/05/18 13:28:21;;;;;;;8.25;6.00;;;;;;;;;;5023380;28;20025;-77
2022/05/18 13:30:51;;;;;;;7.25;4.90;;;;;;;;;;5026894;28;20501;-76
2022/05/18 13:33:17;;;;;;;8.68;5.40;;;;;;;;;;5025863;28;20026;-76
2022/05/18 13:35:42;;;;;;;9.07;6.63;;;;;;;;;;5021353;28;20409;-77
2022/05/18 13:38:19;;;;;;;8.30;6.60;;;;;;;;;;5024224;28;20040;-76
2022/05/18 13:40:49;;;;;;;8.82;6.18;;;;;;;;;;5023780;28;20031;-78
2022/05/18 13:43:18;;;;;;;8.40;6.68;;;;;;;;;;5017906;28;20469;-77
2022/05/18 13:45:55;;;;;;;7.82;5.70;;;;;;;;;;5026395;28;20034;-74
2022/05/18 13:48:24;;;;;;;8.40;5.47;;;;;;;;;;5024835;28;20025;-77
2022/05/18 13:50:53;;;;;;;8.68;5.38;;;;;;;;;;5022998;28;20032;-78
2022/05/18 13:53:24;;;;;;;7.50;5.90;;;;;;;;;;5025042;28;20031;-76
2022/05/18 13:55:54;;;;;;;7.47;5.18;;;;;;;;;;5027381;28;20026;-77
2022/05/18 13:58:21;;;;;;;8.00;5.57;;;;;;;;;;5024561;28;20025;-78
2022/05/18 14:00:50;;;;;;;7.88;4.88;;;;;;;;;;5023273;28;20068;-78
2022/05/18 14:03:23;;;;;;;7.32;5.35;;;;;;;;;;5026609;28;20049;-77
2022/05/18 14:05:50;;;;;;;9.57;6.00;;;;;;;;;;5025439;28;20025;-77
2022/05/18 14:08:25;;;;;;;7.38;5.97;;;;;;;;;;5023508;28;20117;-76
2022/05/18 14:10:50;;;;;;;7.75;5.40;;;;;;;;;;5029880;28;20043;-76
2022/05/18 14:13:15;;;;;;;10.05;6.47;;;;;;;;;;5029553;28;20374;-76
2022/05/18 14:15:41;;;;;;;8.23;5.82;;;;;;;;;;5029634;28;20025;-76
2022/05/18 14:18:12;;;;;;;8.32;5.30;;;;;;;;;;5029809;28;20026;-76
2022/05/18 14:20:42;;;;;;;9.43;6.20;;;;;;;;;;5027739;28;20061;-78
2022/05/18 14:23:29;;;;;;;8.60;5.20;;;;;;;;;;5029111;28;20072;-75
2022/05/18 14:26:00;;;;;;;7.38;5.55;;;;;;;;;;5025653;28;20155;-77
2022/05/18 14:28:31;;;;;;;7.93;6.15;;;;;;;;;;5027889;28;20504;-76
2022/05/18 14:30:58;;;;;;;10.10;6.43;;;;;;;;;;5029538;28;20053;-77
2022/05/18 14:33:42;;;;;;;8.27;5.95;;;;;;;;;;5029531;28;20026;-75
2022/05/18 14:36:17;;;;;;;8.02;6.03;;;;;;;;;;5028509;28;20033;-77
2022/05/18 14:38:50;;;;;;;8.55;6.05;;;;;;;;;;5028067;28;20029;-77
2022/05/18 14:41:16;;;;;;;9.20;5.80;;;;;;;;;;5026753;28;20417;-75
2022/05/18 14:43:42;;;;;;;7.38;5.45;;;;;;;;;;5028996;28;20115;-75
2022/05/18 14:46:25;;;;;;;6.80;4.93;;;;;;;;;;5043354;28;20069;-77
2022/05/18 14:49:23;;;;;;;8.75;5.30;;;;;;;;;;5028724;28;20057;-76
2022/05/18 14:51:54;;;;;;;8.88;5.32;;;;;;;;;;5027909;28;20516;-77
2022/05/18 14:54:46;;;;;;;7.65;5.30;;;;;;;;;;5030832;28;20025;-77
2022/05/18 14:57:29;;;;;;;9.40;5.57;;;;;;;;;;5026857;28;20071;-76
2022/05/18 14:59:59;;;;;;;5.28;3.78;;;;;;;;;;5025746;28;20600;-76
2022/05/18 15:02:28;;;;;;;7.25;3.40;;;;;;;;;;5024364;28;20100;-76
2022/05/18 15:05:01;;;;;;;7.22;4.00;;;;;;;;;;5027368;28;20057;-77
2022/05/18 15:07:31;;;;;;;5.28;3.45;;;;;;;;;;5023121;28;20045;-76
2022/05/18 15:10:04;;;;;;;4.72;3.33;;;;;;;;;;5021431;28;20745;-76
2022/05/18 15:12:40;;;;;;;6.93;3.90;;;;;;;;;;5024348;28;20038;-77
2022/05/18 15:15:21;;;;;;;5.35;3.35;;;;;;;;;;5025800;28;20025;-76
2022/05/18 15:17:57;;;;;;;8.00;4.20;;;;;;;;;;5030183;28;20037;-76